sensor_id;sensor_type;location;lat;lon;timestamp;pressure;altitude;pressure_sealevel;temperature;humidity
74542;BME280;63015;45.378;20.360;2022-11-20T00:00:34;100049.41;;;6.39;85.54
74542;BME280;63015;45.378;20.360;2022-11-20T00:02:35;100053.53;;;6.21;85.44
74542;BME280;63015;45.378;20.360;2022-11-20T00:04:35;100053.63;;;6.32;85.72
74542;BME280;63015;45.378;20.360;2022-11-20T00:06:36;100045.72;;;6.17;85.91
74542;BME280;63015;45.378;20.360;2022-11-20T00:08:36;100054.38;;;6.20;86.02
74542;BME280;63015;45.378;20.360;2022-11-20T00:10:38;100051.78;;;6.19;86.08
74542;BME280;63015;45.378;20.360;2022-11-20T00:12:39;100045.75;;;6.21;85.99
74542;BME280;63015;45.378;20.360;2022-11-20T00:14:39;100041.50;;;6.23;85.78
74542;BME280;63015;45.378;20.360;2022-11-20T00:16:41;100044.16;;;6.31;85.73
74542;BME280;63015;45.378;20.360;2022-11-20T00:18:42;100035.44;;;6.23;85.91
74542;BME280;63015;45.378;20.360;2022-11-20T00:20:44;100031.16;;;6.28;85.90
74542;BME280;63015;45.378;20.360;2022-11-20T00:22:44;100031.13;;;6.23;85.76
74542;BME280;63015;45.378;20.360;2022-11-20T00:24:45;100036.41;;;6.33;85.94
74542;BME280;63015;45.378;20.360;2022-11-20T00:26:45;100036.31;;;6.23;86.18
74542;BME280;63015;45.378;20.360;2022-11-20T00:28:54;100046.69;;;6.27;86.10
74542;BME280;63015;45.378;20.360;2022-11-20T00:31:22;100045.75;;;6.18;86.11
74542;BME280;63015;45.378;20.360;2022-11-20T00:33:22;100033.72;;;6.25;85.97
74542;BME280;63015;45.378;20.360;2022-11-20T00:35:25;100036.31;;;6.23;85.94
74542;BME280;63015;45.378;20.360;2022-11-20T00:37:26;100021.56;;;6.18;85.83
74542;BME280;63015;45.378;20.360;2022-11-20T00:39:27;100018.06;;;6.11;85.94
74542;BME280;63015;45.378;20.360;2022-11-20T00:41:28;100018.16;;;6.20;85.96
74542;BME280;63015;45.378;20.360;2022-11-20T00:43:29;100050.91;;;6.18;85.64
74542;BME280;63015;45.378;20.360;2022-11-20T00:45:30;100056.13;;;6.23;85.50
74542;BME280;63015;45.378;20.360;2022-11-20T00:47:30;100054.47;;;6.28;85.22
74542;BME280;63015;45.378;20.360;2022-11-20T00:49:31;100044.84;;;6.18;85.25
74542;BME280;63015;45.378;20.360;2022-11-20T00:51:32;100043.25;;;6.29;85.30
74542;BME280;63015;45.378;20.360;2022-11-20T00:53:32;100020.78;;;6.25;85.30
74542;BME280;63015;45.378;20.360;2022-11-20T00:55:33;100014.09;;;6.46;85.10
74542;BME280;63015;45.378;20.360;2022-11-20T00:57:33;100006.19;;;6.33;85.05
74542;BME280;63015;45.378;20.360;2022-11-20T00:59:34;100024.31;;;6.30;84.85
74542;BME280;63015;45.378;20.360;2022-11-20T01:01:36;100018.97;;;6.15;85.06
74542;BME280;63015;45.378;20.360;2022-11-20T01:03:43;100017.38;;;6.29;85.15
74542;BME280;63015;45.378;20.360;2022-11-20T01:05:44;100012.19;;;6.26;84.95
74542;BME280;63015;45.378;20.360;2022-11-20T01:07:45;100005.22;;;6.22;84.91
74542;BME280;63015;45.378;20.360;2022-11-20T01:09:45;99989.81;;;6.34;84.98
74542;BME280;63015;45.378;20.360;2022-11-20T01:11:46;99978.47;;;6.18;85.15
74542;BME280;63015;45.378;20.360;2022-11-20T01:13:48;99974.25;;;6.28;85.05
74542;BME280;63015;45.378;20.360;2022-11-20T01:15:49;99970.72;;;6.20;84.99
74542;BME280;63015;45.378;20.360;2022-11-20T01:17:50;99939.69;;;6.23;85.33
74542;BME280;63015;45.378;20.360;2022-11-20T01:19:50;99926.78;;;6.26;85.11
74542;BME280;63015;45.378;20.360;2022-11-20T01:21:53;99931.16;;;6.35;84.78
74542;BME280;63015;45.378;20.360;2022-11-20T01:23:54;99930.34;;;6.40;84.81
74542;BME280;63015;45.378;20.360;2022-11-20T01:25:55;99926.72;;;6.20;85.11
74542;BME280;63015;45.378;20.360;2022-11-20T01:27:55;99924.09;;;6.15;85.45
74542;BME280;63015;45.378;20.360;2022-11-20T01:29:56;99920.59;;;6.12;85.52
74542;BME280;63015;45.378;20.360;2022-11-20T01:31:56;99912.13;;;6.27;85.64
74542;BME280;63015;45.378;20.360;2022-11-20T01:33:59;99907.75;;;6.19;85.54
74542;BME280;63015;45.378;20.360;2022-11-20T01:36:04;99897.31;;;6.07;85.83
74542;BME280;63015;45.378;20.360;2022-11-20T01:38:06;99894.72;;;6.08;85.94
74542;BME280;63015;45.378;20.360;2022-11-20T01:40:06;99888.75;;;6.17;85.87
74542;BME280;63015;45.378;20.360;2022-11-20T01:42:07;99889.56;;;6.10;85.81
74542;BME280;63015;45.378;20.360;2022-11-20T01:46:59;99877.50;;;6.14;85.91
74542;BME280;63015;45.378;20.360;2022-11-20T01:49:04;99888.78;;;6.20;85.74
74542;BME280;63015;45.378;20.360;2022-11-20T01:53:28;99898.97;;;6.03;85.89
74542;BME280;63015;45.378;20.360;2022-11-20T01:55:34;99895.50;;;6.01;86.11
74542;BME280;63015;45.378;20.360;2022-11-20T01:57:36;99899.91;;;6.12;85.76
74542;BME280;63015;45.378;20.360;2022-11-20T01:59:42;99895.56;;;6.09;85.94
74542;BME280;63015;45.378;20.360;2022-11-20T02:01:45;99892.13;;;6.07;85.89
74542;BME280;63015;45.378;20.360;2022-11-20T02:03:46;99893.94;;;6.17;85.77
74542;BME280;63015;45.378;20.360;2022-11-20T02:07:52;99888.09;;;6.41;85.01
74542;BME280;63015;45.378;20.360;2022-11-20T02:09:54;99871.69;;;6.42;84.74
74542;BME280;63015;45.378;20.360;2022-11-20T02:11:55;99876.06;;;6.47;84.50
74542;BME280;63015;45.378;20.360;2022-11-20T02:13:56;99876.06;;;6.53;84.56
74542;BME280;63015;45.378;20.360;2022-11-20T02:15:57;99876.13;;;6.61;84.33
74542;BME280;63015;45.378;20.360;2022-11-20T02:17:58;99892.44;;;6.44;84.16
74542;BME280;63015;45.378;20.360;2022-11-20T02:19:58;99884.50;;;6.24;84.86
74542;BME280;63015;45.378;20.360;2022-11-20T02:22:14;99910.44;;;6.35;84.96
74542;BME280;63015;45.378;20.360;2022-11-20T02:24:19;99901.91;;;6.44;84.67
74542;BME280;63015;45.378;20.360;2022-11-20T02:26:22;99897.56;;;6.38;85.03
74542;BME280;63015;45.378;20.360;2022-11-20T02:28:24;99893.97;;;6.22;85.18
74542;BME280;63015;45.378;20.360;2022-11-20T02:30:24;99907.88;;;6.35;85.07
74542;BME280;63015;45.378;20.360;2022-11-20T02:32:28;99907.84;;;6.29;85.10
74542;BME280;63015;45.378;20.360;2022-11-20T02:34:29;99912.13;;;6.30;85.01
74542;BME280;63015;45.378;20.360;2022-11-20T02:36:32;99909.53;;;6.27;84.83
74542;BME280;63015;45.378;20.360;2022-11-20T02:38:32;99893.13;;;6.24;84.88
74542;BME280;63015;45.378;20.360;2022-11-20T02:40:33;99883.78;;;6.45;84.88
74542;BME280;63015;45.378;20.360;2022-11-20T02:42:35;99870.78;;;6.37;84.83
74542;BME280;63015;45.378;20.360;2022-11-20T02:44:36;99888.06;;;6.37;84.94
74542;BME280;63015;45.378;20.360;2022-11-20T02:46:36;99876.81;;;6.35;84.82
74542;BME280;63015;45.378;20.360;2022-11-20T02:48:37;99875.13;;;6.40;84.73
74542;BME280;63015;45.378;20.360;2022-11-20T02:50:38;99880.22;;;6.31;84.88
74542;BME280;63015;45.378;20.360;2022-11-20T02:52:39;99875.97;;;6.34;84.79
74542;BME280;63015;45.378;20.360;2022-11-20T02:54:40;99869.09;;;6.39;84.58
74542;BME280;63015;45.378;20.360;2022-11-20T02:56:41;99863.88;;;6.33;84.58
74542;BME280;63015;45.378;20.360;2022-11-20T02:58:41;99858.78;;;6.44;84.45
74542;BME280;63015;45.378;20.360;2022-11-20T03:00:42;99870.00;;;6.46;84.50
74542;BME280;63015;45.378;20.360;2022-11-20T03:02:42;99860.44;;;6.34;84.29
74542;BME280;63015;45.378;20.360;2022-11-20T03:04:43;99860.47;;;6.40;84.30
74542;BME280;63015;45.378;20.360;2022-11-20T03:06:43;99844.09;;;6.41;84.20
74542;BME280;63015;45.378;20.360;2022-11-20T03:08:44;99856.16;;;6.38;84.40
74542;BME280;63015;45.378;20.360;2022-11-20T03:10:44;99869.88;;;6.26;84.80
74542;BME280;63015;45.378;20.360;2022-11-20T03:12:45;99865.63;;;6.37;84.55
74542;BME280;63015;45.378;20.360;2022-11-20T03:14:46;99881.19;;;6.42;84.37
74542;BME280;63015;45.378;20.360;2022-11-20T03:16:46;99891.59;;;6.47;84.38
74542;BME280;63015;45.378;20.360;2022-11-20T03:18:47;99904.53;;;6.47;83.98
74542;BME280;63015;45.378;20.360;2022-11-20T03:20:48;99913.88;;;6.29;84.27
74542;BME280;63015;45.378;20.360;2022-11-20T03:22:49;99929.41;;;6.31;84.46
74542;BME280;63015;45.378;20.360;2022-11-20T03:24:49;99925.97;;;6.33;84.92
74542;BME280;63015;45.378;20.360;2022-11-20T03:26:51;99932.75;;;6.16;84.77
74542;BME280;63015;45.378;20.360;2022-11-20T03:29:03;99931.84;;;6.14;84.95
74542;BME280;63015;45.378;20.360;2022-11-20T03:31:06;99943.16;;;6.23;84.98
74542;BME280;63015;45.378;20.360;2022-11-20T03:33:06;99947.56;;;6.35;84.60
74542;BME280;63015;45.378;20.360;2022-11-20T03:35:07;99950.94;;;6.27;84.96
74542;BME280;63015;45.378;20.360;2022-11-20T03:37:08;99943.16;;;6.23;85.05
74542;BME280;63015;45.378;20.360;2022-11-20T03:39:09;99944.09;;;6.35;84.92
74542;BME280;63015;45.378;20.360;2022-11-20T03:41:13;99943.25;;;6.34;84.66
74542;BME280;63015;45.378;20.360;2022-11-20T03:43:14;99947.53;;;6.32;84.66
74542;BME280;63015;45.378;20.360;2022-11-20T03:45:16;99950.16;;;6.34;84.60
74542;BME280;63015;45.378;20.360;2022-11-20T03:47:17;99944.84;;;6.21;84.70
74542;BME280;63015;45.378;20.360;2022-11-20T03:49:18;99945.91;;;6.44;85.16
74542;BME280;63015;45.378;20.360;2022-11-20T03:53:20;99932.13;;;6.45;84.97
74542;BME280;63015;45.378;20.360;2022-11-20T03:55:21;99929.59;;;6.54;84.42
74542;BME280;63015;45.378;20.360;2022-11-20T03:57:21;99927.78;;;6.42;84.43
74542;BME280;63015;45.378;20.360;2022-11-20T03:59:22;99922.47;;;6.25;85.05
74542;BME280;63015;45.378;20.360;2022-11-20T04:01:28;99915.56;;;6.25;85.25
74542;BME280;63015;45.378;20.360;2022-11-20T04:03:29;99912.25;;;6.40;85.16
74542;BME280;63015;45.378;20.360;2022-11-20T04:05:30;99917.44;;;6.45;84.89
74542;BME280;63015;45.378;20.360;2022-11-20T04:07:30;99916.59;;;6.48;84.90
74542;BME280;63015;45.378;20.360;2022-11-20T04:09:31;99917.31;;;6.28;84.95
74542;BME280;63015;45.378;20.360;2022-11-20T04:11:35;99907.91;;;6.36;85.19
74542;BME280;63015;45.378;20.360;2022-11-20T04:13:36;99911.22;;;6.23;85.37
74542;BME280;63015;45.378;20.360;2022-11-20T04:15:37;99906.22;;;6.43;85.17
74542;BME280;63015;45.378;20.360;2022-11-20T04:17:37;99901.78;;;6.28;85.45
74542;BME280;63015;45.378;20.360;2022-11-20T04:19:38;99898.34;;;6.29;85.36
74542;BME280;63015;45.378;20.360;2022-11-20T04:21:38;99897.56;;;6.38;85.06
74542;BME280;63015;45.378;20.360;2022-11-20T04:23:39;99898.41;;;6.40;85.05
74542;BME280;63015;45.378;20.360;2022-11-20T04:25:39;99909.63;;;6.37;85.32
74542;BME280;63015;45.378;20.360;2022-11-20T04:27:40;99899.97;;;6.15;85.83
74542;BME280;63015;45.378;20.360;2022-11-20T04:29:41;99905.91;;;6.04;85.84
74542;BME280;63015;45.378;20.360;2022-11-20T04:31:41;99901.72;;;6.19;85.93
74542;BME280;63015;45.378;20.360;2022-11-20T04:33:42;99906.97;;;6.28;85.64
74542;BME280;63015;45.378;20.360;2022-11-20T04:35:46;99898.22;;;6.15;85.67
74542;BME280;63015;45.378;20.360;2022-11-20T04:37:47;99897.44;;;6.22;85.49
74542;BME280;63015;45.378;20.360;2022-11-20T04:39:48;99898.16;;;6.06;85.56
74542;BME280;63015;45.378;20.360;2022-11-20T04:41:48;99900.66;;;5.98;85.94
74542;BME280;63015;45.378;20.360;2022-11-20T04:44:09;99913.59;;;6.00;86.20
74542;BME280;63015;45.378;20.360;2022-11-20T04:46:10;99910.81;;;5.81;86.48
74542;BME280;63015;45.378;20.360;2022-11-20T04:48:10;99914.50;;;6.02;86.26
74542;BME280;63015;45.378;20.360;2022-11-20T04:50:11;99919.69;;;6.03;86.24
74542;BME280;63015;45.378;20.360;2022-11-20T04:52:11;99923.19;;;6.12;85.86
74542;BME280;63015;45.378;20.360;2022-11-20T04:54:12;99925.59;;;5.95;85.98
74542;BME280;63015;45.378;20.360;2022-11-20T04:56:13;99926.53;;;6.01;86.35
74542;BME280;63015;45.378;20.360;2022-11-20T04:58:14;99923.81;;;5.89;86.33
74542;BME280;63015;45.378;20.360;2022-11-20T05:00:15;99915.09;;;5.78;85.92
74542;BME280;63015;45.378;20.360;2022-11-20T05:02:16;99918.41;;;5.66;86.13
74542;BME280;63015;45.378;20.360;2022-11-20T05:04:17;99913.25;;;5.67;86.30
74542;BME280;63015;45.378;20.360;2022-11-20T05:06:19;99910.66;;;5.66;86.55
74542;BME280;63015;45.378;20.360;2022-11-20T05:08:20;99920.09;;;5.62;85.97
74542;BME280;63015;45.378;20.360;2022-11-20T05:10:21;99907.81;;;5.44;86.02
74542;BME280;63015;45.378;20.360;2022-11-20T05:12:21;99911.16;;;5.35;86.18
74542;BME280;63015;45.378;20.360;2022-11-20T05:14:22;99909.28;;;5.23;86.41
74542;BME280;63015;45.378;20.360;2022-11-20T05:16:23;99922.38;;;5.37;86.54
74542;BME280;63015;45.378;20.360;2022-11-20T05:18:24;99925.75;;;5.32;86.30
74542;BME280;63015;45.378;20.360;2022-11-20T05:20:25;99927.38;;;5.23;86.23
74542;BME280;63015;45.378;20.360;2022-11-20T05:22:25;99928.91;;;5.09;86.65
74542;BME280;63015;45.378;20.360;2022-11-20T05:24:26;99936.88;;;5.26;86.72
74542;BME280;63015;45.378;20.360;2022-11-20T05:26:26;99944.56;;;5.20;86.62
74542;BME280;63015;45.378;20.360;2022-11-20T05:28:28;99926.38;;;5.12;86.59
74542;BME280;63015;45.378;20.360;2022-11-20T05:30:29;99918.53;;;5.06;86.89
74542;BME280;63015;45.378;20.360;2022-11-20T05:32:29;99934.19;;;5.18;86.87
74542;BME280;63015;45.378;20.360;2022-11-20T05:34:30;99931.53;;;5.14;86.71
74542;BME280;63015;45.378;20.360;2022-11-20T05:36:31;99934.84;;;5.02;86.58
74542;BME280;63015;45.378;20.360;2022-11-20T05:38:32;99946.81;;;4.95;86.56
74542;BME280;63015;45.378;20.360;2022-11-20T05:40:32;99933.69;;;4.81;86.69
74542;BME280;63015;45.378;20.360;2022-11-20T05:42:33;99941.63;;;4.93;86.47
74542;BME280;63015;45.378;20.360;2022-11-20T05:44:34;99932.25;;;5.02;86.28
74542;BME280;63015;45.378;20.360;2022-11-20T05:46:34;99926.06;;;4.90;86.17
74542;BME280;63015;45.378;20.360;2022-11-20T05:48:35;99945.03;;;4.92;86.27
74542;BME280;63015;45.378;20.360;2022-11-20T05:50:36;99965.09;;;5.12;86.28
74542;BME280;63015;45.378;20.360;2022-11-20T05:52:37;99964.91;;;4.98;85.74
74542;BME280;63015;45.378;20.360;2022-11-20T05:54:37;99967.22;;;4.80;86.00
74542;BME280;63015;45.378;20.360;2022-11-20T05:56:38;99963.94;;;4.88;86.35
74542;BME280;63015;45.378;20.360;2022-11-20T05:58:38;99965.59;;;4.86;86.29
74542;BME280;63015;45.378;20.360;2022-11-20T06:00:39;99961.38;;;4.93;86.03
74542;BME280;63015;45.378;20.360;2022-11-20T06:02:40;99967.31;;;4.86;85.97
74542;BME280;63015;45.378;20.360;2022-11-20T06:04:40;99982.75;;;4.81;86.10
74542;BME280;63015;45.378;20.360;2022-11-20T06:06:41;99976.00;;;4.91;86.38
74542;BME280;63015;45.378;20.360;2022-11-20T06:08:42;99968.09;;;4.80;86.17
74542;BME280;63015;45.378;20.360;2022-11-20T06:10:43;99966.47;;;4.87;86.36
74542;BME280;63015;45.378;20.360;2022-11-20T06:12:43;99964.75;;;4.87;86.13
74542;BME280;63015;45.378;20.360;2022-11-20T06:14:44;99978.28;;;4.72;86.23
74542;BME280;63015;45.378;20.360;2022-11-20T06:16:44;99979.34;;;4.84;86.08
74542;BME280;63015;45.378;20.360;2022-11-20T06:18:46;99976.53;;;4.71;85.94
74542;BME280;63015;45.378;20.360;2022-11-20T06:20:47;99979.94;;;4.67;86.22
74542;BME280;63015;45.378;20.360;2022-11-20T06:22:48;99973.09;;;4.69;85.82
74542;BME280;63015;45.378;20.360;2022-11-20T06:24:48;99974.13;;;4.81;86.04
74542;BME280;63015;45.378;20.360;2022-11-20T06:26:49;99976.59;;;4.73;85.92
74542;BME280;63015;45.378;20.360;2022-11-20T06:28:50;99980.00;;;4.70;86.15
74542;BME280;63015;45.378;20.360;2022-11-20T06:30:51;99960.13;;;4.66;86.06
74542;BME280;63015;45.378;20.360;2022-11-20T06:32:52;99964.31;;;4.58;86.28
74542;BME280;63015;45.378;20.360;2022-11-20T06:34:52;99967.03;;;4.69;86.26
74542;BME280;63015;45.378;20.360;2022-11-20T06:36:53;99981.66;;;4.67;86.26
74542;BME280;63015;45.378;20.360;2022-11-20T06:38:53;99976.66;;;4.79;85.93
74542;BME280;63015;45.378;20.360;2022-11-20T06:40:54;99991.78;;;4.56;86.01
74542;BME280;63015;45.378;20.360;2022-11-20T06:42:55;100004.19;;;4.75;86.38
74542;BME280;63015;45.378;20.360;2022-11-20T06:44:56;100029.03;;;4.70;85.92
74542;BME280;63015;45.378;20.360;2022-11-20T06:46:56;100027.34;;;4.74;86.11
74542;BME280;63015;45.378;20.360;2022-11-20T06:48:57;100024.59;;;4.61;85.52
74542;BME280;63015;45.378;20.360;2022-11-20T06:50:58;100024.44;;;4.52;85.85
74542;BME280;63015;45.378;20.360;2022-11-20T06:53:03;100020.22;;;4.57;85.96
74542;BME280;63015;45.378;20.360;2022-11-20T06:55:04;100024.59;;;4.61;85.93
74542;BME280;63015;45.378;20.360;2022-11-20T06:57:05;100030.00;;;4.75;85.50
74542;BME280;63015;45.378;20.360;2022-11-20T06:59:06;100041.38;;;4.88;85.34
74542;BME280;63015;45.378;20.360;2022-11-20T07:01:10;100040.13;;;4.65;85.01
74542;BME280;63015;45.378;20.360;2022-11-20T07:03:12;100041.94;;;4.70;85.65
74542;BME280;63015;45.378;20.360;2022-11-20T07:05:12;100049.78;;;4.76;85.29
74542;BME280;63015;45.378;20.360;2022-11-20T07:07:13;100049.03;;;4.84;85.05
74542;BME280;63015;45.378;20.360;2022-11-20T07:09:13;100053.16;;;4.74;85.23
74542;BME280;63015;45.378;20.360;2022-11-20T07:11:14;100040.34;;;4.77;85.23
74542;BME280;63015;45.378;20.360;2022-11-20T07:13:15;100036.22;;;4.88;84.99
74542;BME280;63015;45.378;20.360;2022-11-20T07:15:15;100058.84;;;5.05;84.70
74542;BME280;63015;45.378;20.360;2022-11-20T07:17:16;100051.59;;;4.82;84.51
74542;BME280;63015;45.378;20.360;2022-11-20T07:19:16;100043.28;;;5.00;84.75
74542;BME280;63015;45.378;20.360;2022-11-20T07:21:17;100052.44;;;4.81;84.64
74542;BME280;63015;45.378;20.360;2022-11-20T07:23:17;100055.13;;;4.87;85.02
74542;BME280;63015;45.378;20.360;2022-11-20T07:25:18;100055.72;;;4.72;84.82
74542;BME280;63015;45.378;20.360;2022-11-20T07:27:18;100060.97;;;4.75;85.07
74542;BME280;63015;45.378;20.360;2022-11-20T07:29:19;100056.34;;;5.09;84.93
74542;BME280;63015;45.378;20.360;2022-11-20T07:31:20;100048.63;;;5.13;84.36
74542;BME280;63015;45.378;20.360;2022-11-20T07:33:20;100057.50;;;4.75;84.57
74542;BME280;63015;45.378;20.360;2022-11-20T07:35:22;100061.72;;;4.70;85.12
74542;BME280;63015;45.378;20.360;2022-11-20T07:37:23;100076.63;;;4.86;84.84
74542;BME280;63015;45.378;20.360;2022-11-20T07:39:23;100072.38;;;4.90;84.81
74542;BME280;63015;45.378;20.360;2022-11-20T07:41:24;100070.72;;;4.93;84.67
74542;BME280;63015;45.378;20.360;2022-11-20T07:43:25;100063.81;;;4.91;84.68
74542;BME280;63015;45.378;20.360;2022-11-20T07:45:25;100064.75;;;4.96;84.80
74542;BME280;63015;45.378;20.360;2022-11-20T07:47:26;100078.75;;;5.10;84.61
74542;BME280;63015;45.378;20.360;2022-11-20T07:49:26;100072.53;;;4.99;84.41
74542;BME280;63015;45.378;20.360;2022-11-20T07:51:27;100071.59;;;4.94;84.67
74542;BME280;63015;45.378;20.360;2022-11-20T07:53:29;100076.19;;;5.12;84.70
74542;BME280;63015;45.378;20.360;2022-11-20T07:55:30;100074.53;;;5.16;84.41
74542;BME280;63015;45.378;20.360;2022-11-20T07:57:31;100083.88;;;5.09;84.18
74542;BME280;63015;45.378;20.360;2022-11-20T07:59:31;100087.09;;;4.96;84.64
74542;BME280;63015;45.378;20.360;2022-11-20T08:01:32;100089.69;;;4.97;84.70
74542;BME280;63015;45.378;20.360;2022-11-20T08:03:33;100089.56;;;4.89;85.08
74542;BME280;63015;45.378;20.360;2022-11-20T08:05:34;100093.28;;;5.04;85.00
74542;BME280;63015;45.378;20.360;2022-11-20T08:07:36;100101.09;;;5.10;84.81
74542;BME280;63015;45.378;20.360;2022-11-20T08:09:37;100108.97;;;5.18;84.24
74542;BME280;63015;45.378;20.360;2022-11-20T08:11:38;100108.03;;;5.13;83.82
74542;BME280;63015;45.378;20.360;2022-11-20T08:13:57;100107.06;;;5.06;84.21
74542;BME280;63015;45.378;20.360;2022-11-20T08:16:13;100113.41;;;5.25;84.17
74542;BME280;63015;45.378;20.360;2022-11-20T08:18:14;100129.00;;;5.30;84.06
74542;BME280;63015;45.378;20.360;2022-11-20T08:20:15;100124.19;;;5.54;83.61
74542;BME280;63015;45.378;20.360;2022-11-20T08:22:16;100123.34;;;5.55;83.29
74542;BME280;63015;45.378;20.360;2022-11-20T08:24:17;100121.97;;;5.22;83.19
74542;BME280;63015;45.378;20.360;2022-11-20T08:26:18;100127.38;;;5.38;83.41
74542;BME280;63015;45.378;20.360;2022-11-20T08:28:20;100134.03;;;5.22;83.42
74542;BME280;63015;45.378;20.360;2022-11-20T08:30:20;100134.38;;;5.43;83.83
74542;BME280;63015;45.378;20.360;2022-11-20T08:32:21;100129.22;;;5.43;83.43
74542;BME280;63015;45.378;20.360;2022-11-20T08:34:21;100143.25;;;5.61;83.18
74542;BME280;63015;45.378;20.360;2022-11-20T08:36:23;100148.25;;;5.50;82.71
74542;BME280;63015;45.378;20.360;2022-11-20T08:38:24;100147.66;;;5.67;82.81
74542;BME280;63015;45.378;20.360;2022-11-20T08:40:24;100163.13;;;5.65;82.60
74542;BME280;63015;45.378;20.360;2022-11-20T08:42:25;100161.31;;;5.59;82.38
74542;BME280;63015;45.378;20.360;2022-11-20T08:44:25;100154.31;;;5.52;82.76
74542;BME280;63015;45.378;20.360;2022-11-20T08:46:28;100150.38;;;5.76;82.66
74542;BME280;63015;45.378;20.360;2022-11-20T08:48:31;100146.81;;;5.69;82.41
74542;BME280;63015;45.378;20.360;2022-11-20T08:50:31;100142.50;;;5.70;82.72
74542;BME280;63015;45.378;20.360;2022-11-20T08:52:32;100147.78;;;5.78;82.34
74542;BME280;63015;45.378;20.360;2022-11-20T08:54:33;100157.28;;;5.77;82.37
74542;BME280;63015;45.378;20.360;2022-11-20T08:56:35;100150.50;;;5.85;82.19
74542;BME280;63015;45.378;20.360;2022-11-20T08:58:36;100159.16;;;5.87;81.86
74542;BME280;63015;45.378;20.360;2022-11-20T09:00:37;100170.22;;;5.79;81.91
74542;BME280;63015;45.378;20.360;2022-11-20T09:02:37;100175.22;;;5.68;82.08
74542;BME280;63015;45.378;20.360;2022-11-20T09:04:38;100178.84;;;5.81;81.79
74542;BME280;63015;45.378;20.360;2022-11-20T09:06:39;100167.56;;;5.74;81.60
74542;BME280;63015;45.378;20.360;2022-11-20T09:08:39;100177.06;;;5.73;81.76
74542;BME280;63015;45.378;20.360;2022-11-20T09:10:40;100179.56;;;5.70;82.13
74542;BME280;63015;45.378;20.360;2022-11-20T09:12:41;100178.84;;;5.79;81.52
74542;BME280;63015;45.378;20.360;2022-11-20T09:14:41;100172.25;;;5.98;81.64
74542;BME280;63015;45.378;20.360;2022-11-20T09:16:42;100164.25;;;5.83;81.88
74542;BME280;63015;45.378;20.360;2022-11-20T09:18:42;100166.84;;;5.83;81.86
74542;BME280;63015;45.378;20.360;2022-11-20T09:20:43;100154.03;;;5.93;81.91
74542;BME280;63015;45.378;20.360;2022-11-20T09:22:44;100159.81;;;5.75;81.80
74542;BME280;63015;45.378;20.360;2022-11-20T09:24:45;100151.13;;;5.69;82.48
74542;BME280;63015;45.378;20.360;2022-11-20T09:26:46;100150.53;;;5.88;82.54
74542;BME280;63015;45.378;20.360;2022-11-20T09:28:46;100145.91;;;5.64;82.57
74542;BME280;63015;45.378;20.360;2022-11-20T09:30:47;100151.81;;;5.57;82.62
74542;BME280;63015;45.378;20.360;2022-11-20T09:32:48;100144.97;;;5.60;82.99
74542;BME280;63015;45.378;20.360;2022-11-20T09:34:48;100144.28;;;5.72;82.45
74542;BME280;63015;45.378;20.360;2022-11-20T09:36:49;100149.78;;;5.96;82.34
74542;BME280;63015;45.378;20.360;2022-11-20T09:38:49;100151.56;;;6.00;82.10
74542;BME280;63015;45.378;20.360;2022-11-20T09:45:44;100155.19;;;6.13;81.64
74542;BME280;63015;45.378;20.360;2022-11-20T09:55:02;100161.28;;;6.18;81.23
74542;BME280;63015;45.378;20.360;2022-11-20T09:57:25;100163.03;;;6.19;80.63
74542;BME280;63015;45.378;20.360;2022-11-20T10:01:35;100162.31;;;6.31;80.54
74542;BME280;63015;45.378;20.360;2022-11-20T10:03:46;100166.56;;;6.25;80.75
74542;BME280;63015;45.378;20.360;2022-11-20T10:05:54;100174.44;;;6.33;80.32
74542;BME280;63015;45.378;20.360;2022-11-20T10:08:13;100161.50;;;6.35;80.18
74542;BME280;63015;45.378;20.360;2022-11-20T10:10:22;100158.03;;;6.33;80.23
74542;BME280;63015;45.378;20.360;2022-11-20T10:15:38;100169.03;;;6.15;80.17
74542;BME280;63015;45.378;20.360;2022-11-20T10:20:40;100158.59;;;6.07;81.24
74542;BME280;63015;45.378;20.360;2022-11-20T10:25:23;100164.69;;;6.12;81.12
74542;BME280;63015;45.378;20.360;2022-11-20T10:27:30;100166.34;;;6.07;81.00
74542;BME280;63015;45.378;20.360;2022-11-20T10:29:38;100171.59;;;6.13;80.74
74542;BME280;63015;45.378;20.360;2022-11-20T10:31:42;100166.47;;;6.18;80.95
74542;BME280;63015;45.378;20.360;2022-11-20T10:33:45;100155.75;;;5.91;80.89
74542;BME280;63015;45.378;20.360;2022-11-20T10:35:54;100158.63;;;6.12;81.35
74542;BME280;63015;45.378;20.360;2022-11-20T10:37:58;100159.88;;;5.79;81.43
74542;BME280;63015;45.378;20.360;2022-11-20T10:42:44;100153.44;;;6.10;81.23
74542;BME280;63015;45.378;20.360;2022-11-20T10:44:51;100158.81;;;6.27;81.02
74542;BME280;63015;45.378;20.360;2022-11-20T10:47:04;100156.31;;;6.33;80.79
74542;BME280;63015;45.378;20.360;2022-11-20T10:49:12;100152.78;;;6.25;81.02
74542;BME280;63015;45.378;20.360;2022-11-20T10:51:40;100142.50;;;6.33;80.40
74542;BME280;63015;45.378;20.360;2022-11-20T10:53:56;100148.31;;;6.13;80.63
74542;BME280;63015;45.378;20.360;2022-11-20T10:56:05;100151.94;;;6.28;80.90
74542;BME280;63015;45.378;20.360;2022-11-20T11:00:13;100155.44;;;6.33;80.27
74542;BME280;63015;45.378;20.360;2022-11-20T11:02:16;100155.47;;;6.36;80.45
74542;BME280;63015;45.378;20.360;2022-11-20T11:04:37;100162.38;;;6.34;80.56
74542;BME280;63015;45.378;20.360;2022-11-20T11:06:44;100170.19;;;6.38;80.14
74542;BME280;63015;45.378;20.360;2022-11-20T11:08:49;100176.25;;;6.42;80.29
74542;BME280;63015;45.378;20.360;2022-11-20T11:10:57;100190.91;;;6.40;80.27
74542;BME280;63015;45.378;20.360;2022-11-20T11:12:59;100194.38;;;6.42;80.33
74542;BME280;63015;45.378;20.360;2022-11-20T11:15:00;100187.53;;;6.44;80.25
74542;BME280;63015;45.378;20.360;2022-11-20T11:17:00;100186.31;;;6.19;80.12
74542;BME280;63015;45.378;20.360;2022-11-20T11:19:12;100195.88;;;6.24;80.58